Time,TemperatureF,DewpointF,PressureIn,WindDirection,WindDirectionDegrees,WindSpeedMPH,WindSpeedGustMPH,Humidity,HourlyPrecipIn,Conditions,Clouds,dailyrainin,SoftwareType,DateUTC
2013-09-02 00:00:00,71.7,69.6,29.78,SE,142,0.0,0.0,93,0.00,,,0.00,VWS V14.01,2013-09-02 04:00:00,
2013-09-02 00:01:00,71.7,69.6,29.78,SE,142,0.0,0.0,93,0.00,,,0.00,VWS V14.01,2013-09-02 04:01:00,
2013-09-02 00:06:00,71.6,69.5,29.78,SE,142,1.0,4.0,93,0.00,,,0.00,VWS V14.01,2013-09-02 04:06:00,
2013-09-02 00:11:00,71.5,69.4,29.78,SE,139,0.0,4.0,93,0.00,,,0.00,VWS V14.01,2013-09-02 04:11:00,
2013-09-02 00:16:00,71.5,69.4,29.78,SE,139,0.0,0.0,93,0.00,,,0.00,VWS V14.01,2013-09-02 04:16:00,
2013-09-02 00:21:00,71.4,69.3,29.78,SE,139,0.0,0.0,93,0.00,,,0.00,VWS V14.01,2013-09-02 04:21:00,
2013-09-02 00:26:00,71.3,68.9,29.78,SE,139,0.0,0.0,92,0.00,,,0.00,VWS V14.01,2013-09-02 04:26:00,
2013-09-02 00:31:00,71.2,68.8,29.78,SE,139,0.0,0.0,92,0.00,,,0.00,VWS V14.01,2013-09-02 04:31:00,
2013-09-02 00:36:00,71.2,68.8,29.78,SE,139,0.0,0.0,92,0.00,,,0.00,VWS V14.01,2013-09-02 04:36:00,
2013-09-02 00:41:00,71.1,68.7,29.78,SE,139,0.0,0.0,92,0.00,,,0.00,VWS V14.01,2013-09-02 04:41:00,
2013-09-02 00:46:00,71.1,69.0,29.78,SE,139,0.0,0.0,93,0.00,,,0.00,VWS V14.01,2013-09-02 04:46:00,
2013-09-02 00:51:00,71.0,68.9,29.78,SE,139,0.0,0.0,93,0.00,,,0.00,VWS V14.01,2013-09-02 04:51:00,
2013-09-02 00:56:00,70.9,68.8,29.78,SE,139,0.0,0.0,93,0.00,,,0.00,VWS V14.01,2013-09-02 04:56:00,
2013-09-02 01:01:00,70.8,68.7,29.77,SE,139,0.0,0.0,93,0.00,,,0.00,VWS V14.01,2013-09-02 05:01:00,
2013-09-02 01:06:00,70.7,68.6,29.77,SE,139,0.0,0.0,93,0.00,,,0.00,VWS V14.01,2013-09-02 05:06:00,
2013-09-02 01:11:00,70.6,68.5,29.77,SE,139,0.0,0.0,93,0.00,,,0.00,VWS V14.01,2013-09-02 05:11:00,
2013-09-02 01:16:00,70.6,68.5,29.77,SE,139,0.0,0.0,93,0.00,,,0.00,VWS V14.01,2013-09-02 05:16:00,
2013-09-02 01:21:00,70.5,68.4,29.77,SE,139,0.0,0.0,93,0.00,,,0.00,VWS V14.01,2013-09-02 05:21:00,
2013-09-02 01:26:00,70.3,68.2,29.77,SE,139,0.0,0.0,93,0.00,,,0.00,VWS V14.01,2013-09-02 05:26:00,
2013-09-02 01:31:00,70.3,68.2,29.77,SE,139,0.0,0.0,93,0.00,,,0.00,VWS V14.01,2013-09-02 05:31:00,
2013-09-02 01:36:00,70.1,68.0,29.77,SE,139,0.0,0.0,93,0.00,,,0.00,VWS V14.01,2013-09-02 05:36:00,
2013-09-02 01:41:00,70.1,68.0,29.77,SE,139,0.0,0.0,93,0.00,,,0.00,VWS V14.01,2013-09-02 05:41:00,
2013-09-02 01:46:00,70.0,67.9,29.77,SE,139,0.0,0.0,93,0.00,,,0.00,VWS V14.01,2013-09-02 05:46:00,
2013-09-02 01:51:00,69.9,67.8,29.77,SE,139,0.0,0.0,93,0.00,,,0.00,VWS V14.01,2013-09-02 05:51:00,
2013-09-02 01:56:00,69.9,67.8,29.77,SE,139,0.0,0.0,93,0.00,,,0.00,VWS V14.01,2013-09-02 05:56:00,
2013-09-02 02:01:00,69.8,67.7,29.78,SE,139,0.0,0.0,93,0.00,,,0.00,VWS V14.01,2013-09-02 06:01:00,
2013-09-02 02:06:00,69.7,67.6,29.78,SE,139,0.0,0.0,93,0.00,,,0.00,VWS V14.01,2013-09-02 06:06:00,
2013-09-02 02:11:00,69.7,67.9,29.78,SE,139,0.0,0.0,94,0.00,,,0.00,VWS V14.01,2013-09-02 06:11:00,
2013-09-02 02:16:00,69.7,67.9,29.77,SE,139,0.0,0.0,94,0.00,,,0.00,VWS V14.01,2013-09-02 06:16:00,
2013-09-02 02:21:00,69.5,67.7,29.77,SE,139,0.0,0.0,94,0.00,,,0.00,VWS V14.01,2013-09-02 06:21:00,
2013-09-02 02:26:00,69.4,67.6,29.77,SE,139,0.0,0.0,94,0.00,,,0.00,VWS V14.01,2013-09-02 06:26:00,
2013-09-02 02:31:00,69.4,67.6,29.77,SE,139,0.0,0.0,94,0.00,,,0.00,VWS V14.01,2013-09-02 06:31:00,
2013-09-02 02:36:00,69.3,67.5,29.77,SE,139,0.0,0.0,94,0.00,,,0.00,VWS V14.01,2013-09-02 06:36:00,
2013-09-02 02:41:00,69.2,67.4,29.77,SE,139,0.0,0.0,94,0.00,,,0.00,VWS V14.01,2013-09-02 06:41:00,
2013-09-02 02:46:00,69.2,67.4,29.77,SE,139,0.0,0.0,94,0.00,,,0.00,VWS V14.01,2013-09-02 06:46:00,
2013-09-02 02:51:00,69.1,67.3,29.77,SE,139,0.0,0.0,94,0.00,,,0.00,VWS V14.01,2013-09-02 06:51:00,
2013-09-02 02:56:00,69.0,67.2,29.77,SE,139,0.0,0.0,94,0.00,,,0.00,VWS V14.01,2013-09-02 06:56:00,
2013-09-02 03:01:00,69.0,67.2,29.77,SE,139,0.0,0.0,94,0.00,,,0.00,VWS V14.01,2013-09-02 07:01:00,
2013-09-02 03:06:00,69.0,67.2,29.77,SE,139,0.0,0.0,94,0.00,,,0.00,VWS V14.01,2013-09-02 07:06:00,
2013-09-02 03:11:00,69.0,67.2,29.77,SE,139,0.0,0.0,94,0.00,,,0.00,VWS V14.01,2013-09-02 07:11:00,
2013-09-02 03:16:00,69.0,67.2,29.76,SE,139,0.0,0.0,94,0.00,,,0.00,VWS V14.01,2013-09-02 07:16:00,
2013-09-02 03:21:00,69.0,67.5,29.76,SE,139,1.0,1.0,95,0.00,,,0.00,VWS V14.01,2013-09-02 07:21:00,
2013-09-02 03:26:00,69.2,67.7,29.76,SE,139,0.0,3.0,95,0.00,,,0.00,VWS V14.01,2013-09-02 07:26:00,
2013-09-02 03:31:00,69.4,67.9,29.76,SE,139,0.0,3.0,95,0.00,,,0.00,VWS V14.01,2013-09-02 07:31:00,
2013-09-02 03:36:00,69.4,67.9,29.76,SSE,157,0.0,4.0,95,0.00,,,0.00,VWS V14.01,2013-09-02 07:36:00,
2013-09-02 03:41:00,69.5,68.0,29.76,SSE,157,0.0,4.0,95,0.00,,,0.00,VWS V14.01,2013-09-02 07:41:00,
2013-09-02 03:46:00,69.6,68.1,29.76,SSE,157,0.0,2.0,95,0.00,,,0.00,VWS V14.01,2013-09-02 07:46:00,
2013-09-02 03:51:00,69.7,68.2,29.76,SSE,157,0.0,2.0,95,0.00,,,0.00,VWS V14.01,2013-09-02 07:51:00,
2013-09-02 03:56:00,69.7,68.2,29.76,SSE,157,0.0,0.0,95,0.00,,,0.00,VWS V14.01,2013-09-02 07:56:00,
2013-09-02 04:01:00,69.8,68.3,29.75,SSE,157,0.0,0.0,95,0.00,,,0.00,VWS V14.01,2013-09-02 08:01:00,
2013-09-02 04:06:00,69.8,68.3,29.75,SSE,157,0.0,1.0,95,0.00,,,0.00,VWS V14.01,2013-09-02 08:06:00,
2013-09-02 04:11:00,69.9,68.4,29.75,SSE,157,0.0,1.0,95,0.00,,,0.00,VWS V14.01,2013-09-02 08:11:00,
2013-09-02 04:16:00,69.9,68.4,29.75,SSE,157,0.0,0.0,95,0.00,,,0.00,VWS V14.01,2013-09-02 08:16:00,
2013-09-02 04:21:00,69.9,68.4,29.75,SSE,157,2.0,2.0,95,0.00,,,0.00,VWS V14.01,2013-09-02 08:21:00,
2013-09-02 04:26:00,70.0,68.5,29.75,SSE,157,0.0,3.0,95,0.00,,,0.00,VWS V14.01,2013-09-02 08:26:00,
2013-09-02 04:31:00,70.1,68.6,29.75,SSE,157,0.0,3.0,95,0.00,,,0.00,VWS V14.01,2013-09-02 08:31:00,
2013-09-02 04:36:00,70.1,68.6,29.75,SSE,157,0.0,0.0,95,0.00,,,0.00,VWS V14.01,2013-09-02 08:36:00,
2013-09-02 04:41:00,70.1,68.6,29.75,SSE,157,0.0,0.0,95,0.00,,,0.00,VWS V14.01,2013-09-02 08:41:00,
2013-09-02 04:46:00,70.1,68.6,29.76,SSE,157,0.0,0.0,95,0.00,,,0.00,VWS V14.01,2013-09-02 08:46:00,
2013-09-02 04:51:00,70.2,68.7,29.76,SSE,157,0.0,0.0,95,0.00,,,0.00,VWS V14.01,2013-09-02 08:51:00,
2013-09-02 04:56:00,70.2,69.0,29.76,SSE,157,0.0,0.0,96,0.00,,,0.00,VWS V14.01,2013-09-02 08:56:00,
2013-09-02 05:01:00,70.2,69.0,29.76,SSE,157,0.0,0.0,96,0.00,,,0.00,VWS V14.01,2013-09-02 09:01:00,
2013-09-02 05:06:00,70.3,69.1,29.76,SSE,157,0.0,0.0,96,0.00,,,0.00,VWS V14.01,2013-09-02 09:06:00,
2013-09-02 05:11:00,70.4,69.2,29.76,SSE,157,0.0,0.0,96,0.00,,,0.00,VWS V14.01,2013-09-02 09:11:00,
2013-09-02 05:16:00,70.4,69.2,29.76,SSE,157,0.0,0.0,96,0.00,,,0.00,VWS V14.01,2013-09-02 09:16:00,
2013-09-02 05:21:00,70.5,69.3,29.76,SSE,157,0.0,0.0,96,0.00,,,0.00,VWS V14.01,2013-09-02 09:21:00,
2013-09-02 05:26:00,70.5,69.3,29.76,SSE,157,0.0,0.0,96,0.00,,,0.00,VWS V14.01,2013-09-02 09:26:00,
2013-09-02 05:31:00,70.5,69.3,29.76,SSE,157,0.0,0.0,96,0.00,,,0.00,VWS V14.01,2013-09-02 09:31:00,
2013-09-02 05:36:00,70.6,69.4,29.76,SSE,157,0.0,0.0,96,0.00,,,0.00,VWS V14.01,2013-09-02 09:36:00,
2013-09-02 05:41:00,70.6,69.4,29.76,SSE,157,0.0,0.0,96,0.00,,,0.00,VWS V14.01,2013-09-02 09:41:00,
2013-09-02 05:45:00,70.6,69.4,29.76,SSE,157,0.0,0.0,96,0.00,,,0.00,VWS V14.01,2013-09-02 09:45:00,
2013-09-02 05:50:00,70.6,69.4,29.76,SSE,157,0.0,0.0,96,0.00,,,0.00,VWS V14.01,2013-09-02 09:50:00,
2013-09-02 05:55:00,70.6,69.4,29.76,SSE,157,0.0,0.0,96,0.00,,,0.00,VWS V14.01,2013-09-02 09:55:00,
2013-09-02 06:00:00,70.6,69.4,29.76,SSE,157,0.0,0.0,96,0.00,,,0.00,VWS V14.01,2013-09-02 10:00:00,
2013-09-02 06:05:00,70.6,69.4,29.76,SSE,157,0.0,0.0,96,0.00,,,0.00,VWS V14.01,2013-09-02 10:05:00,
2013-09-02 06:10:00,70.6,69.4,29.76,SSE,157,0.0,0.0,96,0.00,,,0.00,VWS V14.01,2013-09-02 10:10:00,
2013-09-02 06:15:00,70.6,69.4,29.76,SSE,157,0.0,0.0,96,0.00,,,0.00,VWS V14.01,2013-09-02 10:15:00,
2013-09-02 06:20:00,70.6,69.4,29.76,SSE,157,0.0,0.0,96,0.00,,,0.00,VWS V14.01,2013-09-02 10:20:00,
2013-09-02 06:25:00,70.6,69.4,29.76,SSE,157,0.0,0.0,96,0.00,,,0.00,VWS V14.01,2013-09-02 10:25:00,
2013-09-02 06:30:00,70.6,69.4,29.76,SSE,157,0.0,0.0,96,0.00,,,0.00,VWS V14.01,2013-09-02 10:30:00,
2013-09-02 06:35:00,70.7,69.5,29.76,SSE,157,0.0,0.0,96,0.00,,,0.00,VWS V14.01,2013-09-02 10:35:00,
2013-09-02 06:40:00,70.8,69.6,29.76,SSE,157,0.0,0.0,96,0.00,,,0.00,VWS V14.01,2013-09-02 10:40:00,
2013-09-02 06:45:00,70.8,69.6,29.76,SSE,157,0.0,0.0,96,0.00,,,0.00,VWS V14.01,2013-09-02 10:45:00,
2013-09-02 06:50:00,70.7,69.5,29.76,SSE,157,0.0,0.0,96,0.00,,,0.00,VWS V14.01,2013-09-02 10:50:00,
2013-09-02 06:55:00,70.7,69.5,29.76,SSE,157,0.0,0.0,96,0.00,,,0.00,VWS V14.01,2013-09-02 10:55:00,
2013-09-02 07:00:00,70.8,69.6,29.76,SSE,157,0.0,0.0,96,0.00,,,0.00,VWS V14.01,2013-09-02 11:00:00,
2013-09-02 07:05:00,70.8,69.6,29.76,SSE,157,0.0,0.0,96,0.00,,,0.00,VWS V14.01,2013-09-02 11:05:00,
2013-09-02 07:10:00,70.8,69.6,29.76,SSE,157,0.0,0.0,96,0.00,,,0.00,VWS V14.01,2013-09-02 11:10:00,
2013-09-02 07:15:00,70.9,69.7,29.77,SSE,157,0.0,0.0,96,0.00,,,0.00,VWS V14.01,2013-09-02 11:15:00,
2013-09-02 07:20:00,71.0,69.8,29.77,SSE,157,0.0,0.0,96,0.00,,,0.00,VWS V14.01,2013-09-02 11:20:00,
2013-09-02 07:25:00,71.1,69.9,29.77,SSE,157,0.0,0.0,96,0.00,,,0.00,VWS V14.01,2013-09-02 11:25:00,
2013-09-02 07:30:00,71.2,70.0,29.77,SSE,157,0.0,1.0,96,0.00,,,0.00,VWS V14.01,2013-09-02 11:30:00,
2013-09-02 07:35:00,71.3,70.1,29.77,SSE,157,0.0,0.0,96,0.00,,,0.00,VWS V14.01,2013-09-02 11:35:00,
2013-09-02 07:40:00,71.4,70.2,29.77,SSE,157,0.0,0.0,96,0.00,,,0.00,VWS V14.01,2013-09-02 11:40:00,
2013-09-02 07:45:00,71.4,70.2,29.78,SSE,157,0.0,0.0,96,0.00,,,0.00,VWS V14.01,2013-09-02 11:45:00,
2013-09-02 07:50:00,71.5,70.3,29.78,SSE,157,0.0,0.0,96,0.00,,,0.00,VWS V14.01,2013-09-02 11:50:00,
2013-09-02 07:55:00,71.7,70.5,29.78,SSE,157,0.0,0.0,96,0.00,,,0.00,VWS V14.01,2013-09-02 11:55:00,
2013-09-02 08:00:00,71.8,70.6,29.77,SSE,157,0.0,0.0,96,0.00,,,0.00,VWS V14.01,2013-09-02 12:00:00,
2013-09-02 08:05:00,71.9,70.7,29.77,SSE,157,0.0,0.0,96,0.00,,,0.00,VWS V14.01,2013-09-02 12:05:00,
2013-09-02 08:11:00,72.1,70.9,29.77,SSE,157,0.0,0.0,96,0.00,,,0.00,VWS V14.01,2013-09-02 12:11:00,
2013-09-02 08:16:00,72.1,70.9,29.77,SSE,157,0.0,0.0,96,0.00,,,0.00,VWS V14.01,2013-09-02 12:16:00,
2013-09-02 08:21:00,72.2,71.0,29.77,SSE,157,0.0,0.0,96,0.00,,,0.00,VWS V14.01,2013-09-02 12:21:00,
2013-09-02 08:26:00,72.2,71.0,29.77,SSE,157,0.0,0.0,96,0.00,,,0.00,VWS V14.01,2013-09-02 12:26:00,
2013-09-02 08:31:00,72.2,71.0,29.77,SSE,157,0.0,0.0,96,0.00,,,0.00,VWS V14.01,2013-09-02 12:31:00,
2013-09-02 08:36:00,72.2,71.0,29.77,SSE,157,0.0,0.0,96,0.00,,,0.00,VWS V14.01,2013-09-02 12:36:00,
2013-09-02 08:41:00,72.2,71.0,29.77,SSE,157,0.0,0.0,96,0.00,,,0.00,VWS V14.01,2013-09-02 12:41:00,
2013-09-02 08:46:00,72.2,71.0,29.77,SSE,157,0.0,0.0,96,0.00,,,0.00,VWS V14.01,2013-09-02 12:46:00,
2013-09-02 08:51:00,72.2,71.0,29.77,SSE,157,0.0,0.0,96,0.00,,,0.00,VWS V14.01,2013-09-02 12:51:00,
2013-09-02 08:56:00,72.3,71.4,29.77,SSE,157,0.0,0.0,97,0.01,,,0.01,VWS V14.01,2013-09-02 12:56:00,
2013-09-02 09:01:00,72.3,71.4,29.77,SSE,157,0.0,0.0,97,0.01,,,0.01,VWS V14.01,2013-09-02 13:01:00,
2013-09-02 09:05:00,72.4,71.5,29.77,SSE,157,0.0,0.0,97,0.01,,,0.01,VWS V14.01,2013-09-02 13:05:00,
2013-09-02 09:10:00,72.4,71.5,29.77,SSE,157,0.0,0.0,97,0.01,,,0.01,VWS V14.01,2013-09-02 13:10:00,
2013-09-02 09:15:00,72.5,71.6,29.77,SSE,157,0.0,0.0,97,0.01,,,0.01,VWS V14.01,2013-09-02 13:15:00,
2013-09-02 09:20:00,72.5,71.6,29.77,SSE,157,0.0,0.0,97,0.01,,,0.01,VWS V14.01,2013-09-02 13:20:00,
2013-09-02 09:25:00,72.6,71.7,29.77,SSE,157,0.0,0.0,97,0.01,,,0.01,VWS V14.01,2013-09-02 13:25:00,
2013-09-02 09:30:00,72.8,71.9,29.77,SSE,157,0.0,0.0,97,0.01,,,0.01,VWS V14.01,2013-09-02 13:30:00,
2013-09-02 09:35:00,72.8,71.6,29.77,SSE,157,0.0,0.0,96,0.01,,,0.01,VWS V14.01,2013-09-02 13:35:00,
2013-09-02 09:40:00,72.8,71.6,29.77,SSE,157,0.0,0.0,96,0.01,,,0.01,VWS V14.01,2013-09-02 13:40:00,
2013-09-02 09:45:00,72.8,71.6,29.77,SSE,157,0.0,0.0,96,0.01,,,0.01,VWS V14.01,2013-09-02 13:45:00,
2013-09-02 09:50:00,72.9,71.7,29.77,SSE,157,0.0,0.0,96,0.01,,,0.01,VWS V14.01,2013-09-02 13:50:00,
2013-09-02 09:55:00,73.1,72.2,29.77,SSE,157,0.0,0.0,97,0.00,,,0.01,VWS V14.01,2013-09-02 13:55:00,
2013-09-02 10:00:00,73.2,72.3,29.77,SSE,157,0.0,1.0,97,0.00,,,0.01,VWS V14.01,2013-09-02 14:00:00,
2013-09-02 10:05:00,73.0,71.8,29.77,SSE,157,0.0,0.0,96,0.00,,,0.01,VWS V14.01,2013-09-02 14:05:00,
2013-09-02 10:10:00,73.0,71.8,29.77,SSE,158,0.0,0.0,96,0.00,,,0.01,VWS V14.01,2013-09-02 14:10:00,
2013-09-02 10:15:00,73.0,71.8,29.78,SSE,157,0.0,0.0,96,0.00,,,0.01,VWS V14.01,2013-09-02 14:15:00,
2013-09-02 10:20:00,72.8,71.6,29.78,SSE,157,0.0,0.0,96,0.00,,,0.01,VWS V14.01,2013-09-02 14:20:00,
2013-09-02 10:25:00,72.7,71.5,29.78,SSE,157,0.0,0.0,96,0.00,,,0.01,VWS V14.01,2013-09-02 14:25:00,
2013-09-02 10:30:00,72.8,71.6,29.77,SSE,157,0.0,0.0,96,0.00,,,0.01,VWS V14.01,2013-09-02 14:30:00,
2013-09-02 10:35:00,72.8,71.6,29.77,SSE,157,0.0,0.0,96,0.00,,,0.01,VWS V14.01,2013-09-02 14:35:00,
2013-09-02 10:40:00,72.9,71.7,29.77,SSE,157,0.0,0.0,96,0.00,,,0.01,VWS V14.01,2013-09-02 14:40:00,
2013-09-02 10:45:00,73.0,71.8,29.77,SSE,157,0.0,0.0,96,0.00,,,0.01,VWS V14.01,2013-09-02 14:45:00,
2013-09-02 10:50:00,73.0,71.8,29.77,SSE,157,0.0,0.0,96,0.00,,,0.01,VWS V14.01,2013-09-02 14:50:00,
2013-09-02 10:55:00,73.0,71.8,29.77,SSE,157,0.0,0.0,96,0.00,,,0.01,VWS V14.01,2013-09-02 14:55:00,
2013-09-02 11:00:00,73.1,71.9,29.78,SSE,157,0.0,0.0,96,0.00,,,0.01,VWS V14.01,2013-09-02 15:00:00,
2013-09-02 11:05:00,73.2,72.0,29.78,SSE,157,0.0,0.0,96,0.00,,,0.01,VWS V14.01,2013-09-02 15:05:00,
2013-09-02 11:10:00,73.3,72.1,29.78,SSE,157,0.0,0.0,96,0.00,,,0.01,VWS V14.01,2013-09-02 15:10:00,
2013-09-02 11:15:00,73.3,72.1,29.78,SSE,158,0.0,0.0,96,0.00,,,0.01,VWS V14.01,2013-09-02 15:15:00,
2013-09-02 11:20:00,73.4,72.2,29.78,SSE,157,0.0,0.0,96,0.00,,,0.01,VWS V14.01,2013-09-02 15:20:00,
2013-09-02 11:25:00,73.4,72.2,29.78,SSE,157,0.0,0.0,96,0.00,,,0.01,VWS V14.01,2013-09-02 15:25:00,
2013-09-02 11:31:00,73.3,72.1,29.78,SSE,157,0.0,0.0,96,0.00,,,0.01,VWS V14.01,2013-09-02 15:31:00,
2013-09-02 11:36:00,73.3,72.1,29.78,SSE,157,0.0,0.0,96,0.00,,,0.01,VWS V14.01,2013-09-02 15:36:00,
2013-09-02 11:41:00,73.3,72.1,29.78,SSE,157,0.0,0.0,96,0.00,,,0.01,VWS V14.01,2013-09-02 15:41:00,
2013-09-02 11:46:00,73.4,72.2,29.77,SSE,157,0.0,0.0,96,0.00,,,0.01,VWS V14.01,2013-09-02 15:46:00,
2013-09-02 11:51:00,73.4,72.2,29.77,SSE,157,0.0,0.0,96,0.01,,,0.02,VWS V14.01,2013-09-02 15:51:00,
2013-09-02 11:56:00,73.5,72.3,29.77,SSE,157,0.0,0.0,96,0.01,,,0.02,VWS V14.01,2013-09-02 15:56:00,
2013-09-02 12:01:00,73.6,72.4,29.77,SSE,157,0.0,0.0,96,0.02,,,0.03,VWS V14.01,2013-09-02 16:01:00,
2013-09-02 12:06:00,73.6,72.4,29.77,SSE,157,0.0,0.0,96,0.02,,,0.03,VWS V14.01,2013-09-02 16:06:00,
2013-09-02 12:10:00,73.6,72.4,29.77,SSE,157,0.0,0.0,96,0.02,,,0.03,VWS V14.01,2013-09-02 16:10:00,
2013-09-02 12:15:00,73.7,72.5,29.77,SSE,157,1.0,1.0,96,0.02,,,0.03,VWS V14.01,2013-09-02 16:15:00,
2013-09-02 12:20:00,73.8,72.6,29.77,SSE,157,0.0,1.0,96,0.02,,,0.03,VWS V14.01,2013-09-02 16:20:00,
2013-09-02 12:25:00,73.9,72.7,29.77,SSE,157,0.0,0.0,96,0.02,,,0.03,VWS V14.01,2013-09-02 16:25:00,
2013-09-02 12:30:00,74.0,72.8,29.75,SSE,158,1.0,1.0,96,0.02,,,0.03,VWS V14.01,2013-09-02 16:30:00,
2013-09-02 12:35:00,74.0,72.8,29.75,SSE,157,0.0,0.0,96,0.02,,,0.03,VWS V14.01,2013-09-02 16:35:00,
2013-09-02 12:40:00,74.0,72.5,29.75,SSE,157,0.0,0.0,95,0.02,,,0.03,VWS V14.01,2013-09-02 16:40:00,
2013-09-02 12:45:00,73.9,72.4,29.75,SSE,157,2.0,3.0,95,0.02,,,0.03,VWS V14.01,2013-09-02 16:45:00,
2013-09-02 12:50:00,73.8,72.3,29.75,SSE,157,0.0,5.0,95,0.02,,,0.03,VWS V14.01,2013-09-02 16:50:00,
2013-09-02 12:55:00,73.8,72.3,29.75,SSE,158,0.0,0.0,95,0.01,,,0.03,VWS V14.01,2013-09-02 16:55:00,
2013-09-02 13:00:00,74.0,72.5,29.75,SSE,157,0.0,0.0,95,0.01,,,0.03,VWS V14.01,2013-09-02 17:00:00,
2013-09-02 13:05:00,74.0,72.5,29.75,SSE,157,0.0,2.0,95,0.00,,,0.03,VWS V14.01,2013-09-02 17:05:00,
2013-09-02 13:10:00,74.0,72.5,29.75,SSE,157,0.0,2.0,95,0.00,,,0.03,VWS V14.01,2013-09-02 17:10:00,
2013-09-02 13:15:00,74.0,72.5,29.76,SSE,157,0.0,0.0,95,0.00,,,0.03,VWS V14.01,2013-09-02 17:15:00,
2013-09-02 13:20:00,74.0,72.2,29.76,SSE,158,0.0,0.0,94,0.01,,,0.04,VWS V14.01,2013-09-02 17:20:00,
2013-09-02 13:25:00,73.9,72.1,29.76,SSE,157,0.0,0.0,94,0.01,,,0.04,VWS V14.01,2013-09-02 17:25:00,
2013-09-02 13:30:00,73.9,72.1,29.76,SSE,157,0.0,0.0,94,0.01,,,0.04,VWS V14.01,2013-09-02 17:30:00,
2013-09-02 13:35:00,73.8,72.0,29.76,SSE,157,0.0,0.0,94,0.01,,,0.04,VWS V14.01,2013-09-02 17:35:00,
2013-09-02 13:40:00,73.7,71.9,29.76,SSE,157,0.0,0.0,94,0.02,,,0.05,VWS V14.01,2013-09-02 17:40:00,
2013-09-02 13:45:00,73.6,71.8,29.76,SSE,157,0.0,0.0,94,0.02,,,0.05,VWS V14.01,2013-09-02 17:45:00,
2013-09-02 13:50:00,73.6,71.8,29.76,SSE,157,0.0,0.0,94,0.02,,,0.05,VWS V14.01,2013-09-02 17:50:00,
2013-09-02 13:55:00,73.5,71.7,29.76,SSE,158,0.0,0.0,94,0.02,,,0.05,VWS V14.01,2013-09-02 17:55:00,
2013-09-02 14:00:00,73.5,71.7,29.75,SSE,157,0.0,0.0,94,0.02,,,0.05,VWS V14.01,2013-09-02 18:00:00,
2013-09-02 14:05:00,73.4,71.6,29.75,SSE,157,0.0,0.0,94,0.02,,,0.05,VWS V14.01,2013-09-02 18:05:00,
2013-09-02 14:10:00,73.3,71.2,29.75,SSE,157,0.0,0.0,93,0.02,,,0.05,VWS V14.01,2013-09-02 18:10:00,
2013-09-02 14:15:00,73.2,71.1,29.74,SSE,157,0.0,0.0,93,0.02,,,0.05,VWS V14.01,2013-09-02 18:15:00,
2013-09-02 14:20:00,73.2,71.1,29.74,SSE,157,0.0,0.0,93,0.02,,,0.05,VWS V14.01,2013-09-02 18:20:00,
2013-09-02 14:25:00,73.1,71.0,29.74,SSE,158,0.0,1.0,93,0.01,,,0.05,VWS V14.01,2013-09-02 18:25:00,
2013-09-02 14:30:00,73.2,71.1,29.74,SSE,158,0.0,1.0,93,0.01,,,0.05,VWS V14.01,2013-09-02 18:30:00,
2013-09-02 14:35:00,73.3,71.2,29.74,SSE,158,0.0,1.0,93,0.01,,,0.05,VWS V14.01,2013-09-02 18:35:00,
2013-09-02 14:40:00,73.5,71.4,29.74,SSE,158,1.0,1.0,93,0.01,,,0.05,VWS V14.01,2013-09-02 18:40:00,
2013-09-02 14:45:00,73.6,71.5,29.75,SSE,158,0.0,0.0,93,0.00,,,0.05,VWS V14.01,2013-09-02 18:45:00,
2013-09-02 14:50:00,73.5,71.4,29.75,SSE,158,0.0,0.0,93,0.00,,,0.05,VWS V14.01,2013-09-02 18:50:00,
2013-09-02 14:55:00,73.5,71.4,29.75,SSE,158,0.0,0.0,93,0.00,,,0.05,VWS V14.01,2013-09-02 18:55:00,
2013-09-02 15:00:00,73.6,71.1,29.74,SSE,158,0.0,0.0,92,0.00,,,0.05,VWS V14.01,2013-09-02 19:00:00,
2013-09-02 15:05:00,73.6,71.1,29.74,SSE,158,0.0,0.0,92,0.00,,,0.05,VWS V14.01,2013-09-02 19:05:00,
2013-09-02 15:10:00,73.4,70.6,29.74,SSE,158,0.0,2.0,91,0.00,,,0.05,VWS V14.01,2013-09-02 19:10:00,
2013-09-02 15:15:00,73.4,70.6,29.74,SSE,158,0.0,3.0,91,0.00,,,0.05,VWS V14.01,2013-09-02 19:15:00,
2013-09-02 15:20:00,73.5,70.7,29.74,SSE,158,0.0,3.0,91,0.00,,,0.05,VWS V14.01,2013-09-02 19:20:00,
2013-09-02 15:25:00,73.7,70.9,29.74,SSE,158,0.0,0.0,91,0.00,,,0.05,VWS V14.01,2013-09-02 19:25:00,
2013-09-02 15:30:00,73.8,71.0,29.74,SSE,158,0.0,1.0,91,0.00,,,0.05,VWS V14.01,2013-09-02 19:30:00,
2013-09-02 15:35:00,73.9,71.1,29.74,West,273,0.0,2.0,91,0.00,,,0.05,VWS V14.01,2013-09-02 19:35:00,
2013-09-02 15:40:00,74.1,71.3,29.74,West,272,0.0,2.0,91,0.00,,,0.05,VWS V14.01,2013-09-02 19:40:00,
2013-09-02 15:45:00,74.2,71.1,29.73,West,272,0.0,0.0,90,0.00,,,0.05,VWS V14.01,2013-09-02 19:45:00,
2013-09-02 15:50:00,74.3,71.2,29.73,West,273,0.0,1.0,90,0.00,,,0.05,VWS V14.01,2013-09-02 19:50:00,
2013-09-02 15:55:00,74.6,71.5,29.73,West,272,0.0,1.0,90,0.00,,,0.05,VWS V14.01,2013-09-02 19:55:00,
2013-09-02 16:00:00,74.7,71.6,29.73,West,273,2.0,3.0,90,0.00,,,0.05,VWS V14.01,2013-09-02 20:00:00,
2013-09-02 16:05:00,74.9,71.8,29.73,West,269,0.0,2.0,90,0.00,,,0.05,VWS V14.01,2013-09-02 20:05:00,
2013-09-02 16:10:00,75.0,71.9,29.73,West,269,0.0,2.0,90,0.00,,,0.05,VWS V14.01,2013-09-02 20:10:00,
2013-09-02 16:15:00,75.0,71.5,29.73,NW,315,1.0,6.0,89,0.00,,,0.05,VWS V14.01,2013-09-02 20:15:00,
2013-09-02 16:20:00,75.0,71.5,29.73,WNW,297,4.0,6.0,89,0.00,,,0.05,VWS V14.01,2013-09-02 20:20:00,
2013-09-02 16:25:00,74.9,71.1,29.73,NW,313,0.0,1.0,88,0.00,,,0.05,VWS V14.01,2013-09-02 20:25:00,
2013-09-02 16:30:00,74.9,71.1,29.73,West,267,0.0,4.0,88,0.00,,,0.05,VWS V14.01,2013-09-02 20:30:00,
2013-09-02 16:35:00,74.8,71.0,29.73,NW,323,0.0,8.0,88,0.00,,,0.05,VWS V14.01,2013-09-02 20:35:00,
2013-09-02 16:40:00,74.8,71.3,29.73,WNW,288,0.0,8.0,89,0.00,,,0.05,VWS V14.01,2013-09-02 20:40:00,
2013-09-02 16:45:00,74.7,70.9,29.73,WNW,283,0.0,1.0,88,0.00,,,0.05,VWS V14.01,2013-09-02 20:45:00,
2013-09-02 16:50:00,74.6,70.8,29.73,WNW,283,0.0,1.0,88,0.00,,,0.05,VWS V14.01,2013-09-02 20:50:00,
2013-09-02 16:55:00,74.6,70.8,29.73,WNW,283,0.0,0.0,88,0.00,,,0.05,VWS V14.01,2013-09-02 20:55:00,
2013-09-02 17:00:00,74.4,70.9,29.71,WNW,283,0.0,0.0,89,0.00,,,0.05,VWS V14.01,2013-09-02 21:00:00,
2013-09-02 17:05:00,74.3,70.8,29.71,WNW,283,0.0,1.0,89,0.01,,,0.06,VWS V14.01,2013-09-02 21:05:00,
2013-09-02 17:10:00,74.2,71.1,29.71,WNW,283,0.0,1.0,90,0.02,,,0.07,VWS V14.01,2013-09-02 21:10:00,
2013-09-02 17:15:00,74.0,70.9,29.71,WNW,283,0.0,0.0,90,0.02,,,0.07,VWS V14.01,2013-09-02 21:15:00,
2013-09-02 17:20:00,73.9,70.8,29.71,WNW,283,0.0,0.0,90,0.02,,,0.07,VWS V14.01,2013-09-02 21:20:00,
2013-09-02 17:25:00,73.7,70.6,29.71,WNW,283,0.0,1.0,90,0.02,,,0.07,VWS V14.01,2013-09-02 21:25:00,
2013-09-02 17:30:00,73.6,70.8,29.70,WNW,283,0.0,1.0,91,0.02,,,0.07,VWS V14.01,2013-09-02 21:30:00,
2013-09-02 17:35:00,73.5,70.7,29.70,WNW,283,0.0,0.0,91,0.02,,,0.07,VWS V14.01,2013-09-02 21:35:00,
2013-09-02 17:40:00,73.5,70.7,29.70,WNW,283,0.0,0.0,91,0.02,,,0.07,VWS V14.01,2013-09-02 21:40:00,
2013-09-02 17:45:00,73.5,71.0,29.70,WNW,283,0.0,0.0,92,0.02,,,0.07,VWS V14.01,2013-09-02 21:45:00,
2013-09-02 17:50:00,73.5,71.0,29.70,WNW,284,0.0,0.0,92,0.02,,,0.07,VWS V14.01,2013-09-02 21:50:00,
2013-09-02 17:55:00,73.4,70.9,29.70,WNW,283,0.0,2.0,92,0.02,,,0.07,VWS V14.01,2013-09-02 21:55:00,
2013-09-02 18:00:00,73.3,70.8,29.70,WNW,283,0.0,2.0,92,0.02,,,0.07,VWS V14.01,2013-09-02 22:00:00,
2013-09-02 18:05:00,73.3,70.8,29.70,WNW,283,0.0,0.0,92,0.02,,,0.07,VWS V14.01,2013-09-02 22:05:00,
2013-09-02 18:10:00,73.2,70.7,29.70,WNW,283,0.0,2.0,92,0.02,,,0.07,VWS V14.01,2013-09-02 22:10:00,
2013-09-02 18:15:00,73.1,70.6,29.71,WNW,283,0.0,0.0,92,0.00,,,0.07,VWS V14.01,2013-09-02 22:15:00,
2013-09-02 18:20:00,73.0,70.5,29.71,WNW,283,0.0,0.0,92,0.00,,,0.07,VWS V14.01,2013-09-02 22:20:00,
2013-09-02 18:25:00,72.9,70.4,29.71,WNW,283,0.0,0.0,92,0.00,,,0.07,VWS V14.01,2013-09-02 22:25:00,
2013-09-02 18:30:00,72.8,70.3,29.70,WNW,283,0.0,0.0,92,0.00,,,0.07,VWS V14.01,2013-09-02 22:30:00,
2013-09-02 18:35:00,72.6,70.2,29.70,WNW,283,0.0,0.0,92,0.00,,,0.07,VWS V14.01,2013-09-02 22:35:00,
2013-09-02 18:40:00,72.5,70.1,29.70,WNW,283,0.0,0.0,92,0.00,,,0.07,VWS V14.01,2013-09-02 22:40:00,
2013-09-02 18:45:00,72.4,69.9,29.71,WNW,283,0.0,0.0,92,0.00,,,0.07,VWS V14.01,2013-09-02 22:45:00,
2013-09-02 18:50:00,72.3,69.8,29.71,WNW,283,0.0,0.0,92,0.00,,,0.07,VWS V14.01,2013-09-02 22:50:00,
2013-09-02 18:55:00,72.1,69.7,29.71,WNW,283,0.0,0.0,92,0.00,,,0.07,VWS V14.01,2013-09-02 22:55:00,
2013-09-02 19:00:00,72.0,69.6,29.71,WNW,283,0.0,0.0,92,0.00,,,0.07,VWS V14.01,2013-09-02 23:00:00,
2013-09-02 19:05:00,72.0,69.6,29.71,WNW,283,0.0,0.0,92,0.00,,,0.07,VWS V14.01,2013-09-02 23:05:00,
2013-09-02 19:10:00,71.9,69.4,29.71,WNW,283,0.0,0.0,92,0.00,,,0.07,VWS V14.01,2013-09-02 23:10:00,
2013-09-02 19:15:00,71.7,69.3,29.70,WNW,283,0.0,0.0,92,0.00,,,0.07,VWS V14.01,2013-09-02 23:15:00,
2013-09-02 19:20:00,71.6,69.5,29.70,WNW,283,0.0,0.0,93,0.00,,,0.07,VWS V14.01,2013-09-02 23:20:00,
2013-09-02 19:25:00,71.6,69.5,29.70,WNW,283,0.0,0.0,93,0.00,,,0.07,VWS V14.01,2013-09-02 23:25:00,
2013-09-02 19:30:00,71.5,69.4,29.70,WNW,283,0.0,1.0,93,0.00,,,0.07,VWS V14.01,2013-09-02 23:30:00,
2013-09-02 19:35:00,71.4,69.3,29.70,WNW,283,0.0,0.0,93,0.00,,,0.07,VWS V14.01,2013-09-02 23:35:00,
2013-09-02 19:40:00,71.3,69.2,29.70,WNW,283,0.0,0.0,93,0.00,,,0.07,VWS V14.01,2013-09-02 23:40:00,
2013-09-02 19:45:00,71.2,69.1,29.71,WNW,283,0.0,0.0,93,0.00,,,0.07,VWS V14.01,2013-09-02 23:45:00,
2013-09-02 19:50:00,71.1,69.0,29.71,WNW,283,0.0,0.0,93,0.00,,,0.07,VWS V14.01,2013-09-02 23:50:00,
2013-09-02 19:55:00,71.0,68.9,29.71,WNW,283,0.0,0.0,93,0.00,,,0.07,VWS V14.01,2013-09-02 23:55:00,
2013-09-02 20:00:00,70.9,68.8,29.71,WNW,283,0.0,0.0,93,0.00,,,0.07,VWS V14.01,2013-09-03 00:00:00,
2013-09-02 20:05:00,70.8,69.0,29.71,WNW,283,0.0,0.0,94,0.00,,,0.07,VWS V14.01,2013-09-03 00:05:00,
2013-09-02 20:10:00,70.8,69.0,29.71,WNW,283,0.0,0.0,94,0.00,,,0.07,VWS V14.01,2013-09-03 00:10:00,
2013-09-02 20:15:00,70.7,68.9,29.71,WNW,283,0.0,0.0,94,0.00,,,0.07,VWS V14.01,2013-09-03 00:15:00,
2013-09-02 20:20:00,70.6,68.8,29.71,WNW,283,0.0,0.0,94,0.00,,,0.07,VWS V14.01,2013-09-03 00:20:00,
2013-09-02 20:25:00,70.7,68.9,29.71,SE,131,0.0,0.0,94,0.00,,,0.07,VWS V14.01,2013-09-03 00:25:00,
2013-09-02 20:30:00,70.7,68.9,29.71,SE,132,0.0,4.0,94,0.00,,,0.07,VWS V14.01,2013-09-03 00:30:00,
2013-09-02 20:35:00,70.8,69.0,29.71,SE,132,0.0,0.0,94,0.00,,,0.07,VWS V14.01,2013-09-03 00:35:00,
2013-09-02 20:40:00,70.8,69.3,29.71,SE,132,0.0,0.0,95,0.00,,,0.07,VWS V14.01,2013-09-03 00:40:00,
2013-09-02 20:45:00,70.9,69.4,29.71,SE,132,0.0,0.0,95,0.00,,,0.07,VWS V14.01,2013-09-03 00:45:00,
2013-09-02 20:50:00,70.9,69.4,29.71,SE,132,0.0,0.0,95,0.00,,,0.07,VWS V14.01,2013-09-03 00:50:00,
2013-09-02 20:55:00,70.9,69.4,29.71,SE,132,0.0,0.0,95,0.00,,,0.07,VWS V14.01,2013-09-03 00:55:00,
2013-09-02 21:00:00,70.9,69.4,29.71,SE,132,0.0,1.0,95,0.00,,,0.07,VWS V14.01,2013-09-03 01:00:00,
2013-09-02 21:05:00,70.9,69.4,29.71,SE,132,0.0,0.0,95,0.00,,,0.07,VWS V14.01,2013-09-03 01:05:00,
2013-09-02 21:10:00,71.0,69.5,29.71,SE,132,0.0,0.0,95,0.00,,,0.07,VWS V14.01,2013-09-03 01:10:00,
2013-09-02 21:15:00,71.0,69.5,29.71,SE,132,0.0,0.0,95,0.00,,,0.07,VWS V14.01,2013-09-03 01:15:00,
2013-09-02 21:20:00,70.9,69.4,29.71,SE,132,0.0,0.0,95,0.00,,,0.07,VWS V14.01,2013-09-03 01:20:00,
2013-09-02 21:25:00,71.1,69.6,29.71,SE,132,0.0,0.0,95,0.00,,,0.07,VWS V14.01,2013-09-03 01:25:00,
2013-09-02 21:30:00,71.1,69.6,29.71,SE,132,0.0,0.0,95,0.00,,,0.07,VWS V14.01,2013-09-03 01:30:00,
2013-09-02 21:35:00,71.1,69.6,29.71,SE,132,0.0,0.0,95,0.00,,,0.07,VWS V14.01,2013-09-03 01:35:00,
2013-09-02 21:40:00,71.0,69.5,29.71,SE,132,0.0,0.0,95,0.00,,,0.07,VWS V14.01,2013-09-03 01:40:00,
2013-09-02 21:45:00,71.0,69.5,29.71,SE,132,0.0,0.0,95,0.00,,,0.07,VWS V14.01,2013-09-03 01:45:00,
2013-09-02 21:50:00,70.9,69.4,29.72,SE,132,0.0,0.0,95,0.00,,,0.07,VWS V14.01,2013-09-03 01:50:00,
2013-09-02 21:55:00,70.9,69.4,29.72,SE,132,0.0,0.0,95,0.00,,,0.07,VWS V14.01,2013-09-03 01:55:00,
2013-09-02 22:00:00,70.8,69.3,29.72,SE,132,0.0,0.0,95,0.00,,,0.07,VWS V14.01,2013-09-03 02:00:00,
2013-09-02 22:05:00,70.8,69.3,29.73,SE,132,0.0,0.0,95,0.00,,,0.07,VWS V14.01,2013-09-03 02:05:00,
2013-09-02 22:10:00,70.7,69.2,29.73,SE,132,0.0,0.0,95,0.00,,,0.07,VWS V14.01,2013-09-03 02:10:00,
2013-09-02 22:15:00,70.6,69.1,29.73,SE,132,0.0,0.0,95,0.00,,,0.07,VWS V14.01,2013-09-03 02:15:00,
2013-09-02 22:20:00,70.5,69.0,29.73,SE,132,0.0,0.0,95,0.00,,,0.07,VWS V14.01,2013-09-03 02:20:00,
2013-09-02 22:25:00,70.5,69.0,29.73,SE,132,0.0,0.0,95,0.00,,,0.07,VWS V14.01,2013-09-03 02:25:00,
2013-09-02 22:30:00,70.4,68.9,29.73,SE,132,0.0,0.0,95,0.00,,,0.07,VWS V14.01,2013-09-03 02:30:00,
2013-09-02 22:35:00,70.3,68.8,29.73,SE,132,0.0,0.0,95,0.00,,,0.07,VWS V14.01,2013-09-03 02:35:00,
2013-09-02 22:40:00,70.2,68.7,29.73,SE,132,0.0,0.0,95,0.00,,,0.07,VWS V14.01,2013-09-03 02:40:00,
2013-09-02 22:45:00,70.1,68.6,29.73,SE,132,0.0,0.0,95,0.00,,,0.07,VWS V14.01,2013-09-03 02:45:00,
2013-09-02 22:50:00,70.1,68.6,29.73,SE,132,0.0,0.0,95,0.00,,,0.07,VWS V14.01,2013-09-03 02:50:00,
2013-09-02 22:55:00,70.0,68.5,29.73,SE,132,0.0,0.0,95,0.00,,,0.07,VWS V14.01,2013-09-03 02:55:00,
2013-09-02 23:00:00,69.9,68.4,29.73,SE,132,0.0,0.0,95,0.00,,,0.07,VWS V14.01,2013-09-03 03:00:00,
2013-09-02 23:05:00,69.9,68.4,29.72,SE,132,0.0,0.0,95,0.00,,,0.07,VWS V14.01,2013-09-03 03:05:00,
2013-09-02 23:10:00,69.8,68.3,29.72,SE,132,0.0,0.0,95,0.00,,,0.07,VWS V14.01,2013-09-03 03:10:00,
2013-09-02 23:15:00,69.7,68.2,29.72,SE,132,0.0,0.0,95,0.00,,,0.07,VWS V14.01,2013-09-03 03:15:00,
2013-09-02 23:20:00,69.7,68.2,29.73,SE,132,0.0,0.0,95,0.00,,,0.07,VWS V14.01,2013-09-03 03:20:00,
2013-09-02 23:25:00,69.6,68.1,29.73,SE,132,0.0,0.0,95,0.00,,,0.07,VWS V14.01,2013-09-03 03:25:00,
2013-09-02 23:30:00,69.6,68.1,29.73,SE,132,0.0,0.0,95,0.00,,,0.07,VWS V14.01,2013-09-03 03:30:00,
2013-09-02 23:35:00,69.6,68.4,29.73,SE,132,0.0,0.0,96,0.00,,,0.07,VWS V14.01,2013-09-03 03:35:00,
2013-09-02 23:40:00,69.6,68.4,29.73,SE,132,0.0,0.0,96,0.00,,,0.07,VWS V14.01,2013-09-03 03:40:00,
2013-09-02 23:45:00,69.5,68.0,29.73,SE,132,0.0,0.0,95,0.00,,,0.07,VWS V14.01,2013-09-03 03:45:00,
2013-09-02 23:50:00,69.5,68.0,29.75,SE,132,0.0,0.0,95,0.00,,,0.07,VWS V14.01,2013-09-03 03:50:00,
2013-09-02 23:55:00,69.4,67.9,29.75,SE,132,0.0,0.0,95,0.00,,,0.07,VWS V14.01,2013-09-03 03:55:00,